»·PEaware :: GDS26 KLAS-KHHR

GDS26 :: KLAS-KHHR

FLIGHT INFORMATION

Flight Status: Arrived
Operator: Unknown
More flights by this operator :: More flights under this callsign
Pilot: Ryan B. (8502)
Aircraft: BEECH AIRCRAFT BEECH AIRLINER
(B190)
More flights by this aircraft type
Origin: KLAS McCarran Intl
United States
Destination: KHHR Northrop/Hawthorne Mun
United States
More flights between these airports :: More routes between these airports
Route: +LAS V538 GFS V210 HEC V283 DAWNA PDZ V16 LAHAB
File this flight plan on PilotEdge
Remarks:
Altitude:
(Current/Filed)
20,000ft
Speed:
(Current/Filed)
255kts
Departed: 21-Aug-17 05:54 PM
Arrived: 21-Aug-17 06:52 PM
Distance/Time
Traveled:
203nm/0:58
Distance/Time
To Go:
Arrived

Flight Plot

Page will automatically refresh every two minutes.

Flight plan parsing failed; only flown route is shown


Map Options




Map Legend


Flown Route
Filed Route
Departure Airport
Arrival Airport
Navaid (VOR, NDB)
Fix

Horizontal Profiles

Position Reports

Time Latitude Longitude Heading Altitude Ground
Speed
21-Aug-17 17:44 36.080675 -115.170670 36 2171ft 0kts
21-Aug-17 17:45 36.080675 -115.170670 36 2171ft 0kts
21-Aug-17 17:46 36.080675 -115.170670 36 2171ft 0kts
21-Aug-17 17:47 36.080675 -115.170670 36 2171ft 0kts
21-Aug-17 17:48 36.080675 -115.170670 36 2171ft 0kts
21-Aug-17 17:49 36.080675 -115.170670 36 2171ft 0kts
21-Aug-17 17:50 36.080946 -115.170484 10 2170ft 2kts
21-Aug-17 17:51 36.081678 -115.169351 72 2166ft 12kts
21-Aug-17 17:52 36.086061 -115.166591 24 2149ft 23kts
21-Aug-17 17:53 36.092458 -115.162902 24 2119ft 27kts
21-Aug-17 17:54 36.099310 -115.158783 45 2092ft 25kts
21-Aug-17 17:55 36.098887 -115.156857 204 2086ft 0kts
21-Aug-17 17:56 36.098887 -115.156857 204 2086ft 0kts
21-Aug-17 17:57 36.098887 -115.156857 204 2086ft 0kts
21-Aug-17 17:58 36.091240 -115.161207 203 2119ft 132kts
21-Aug-17 17:59 36.051425 -115.177836 188 3777ft 166kts
21-Aug-17 18:00 36.001770 -115.187682 190 5498ft 197kts
21-Aug-17 18:01 35.947758 -115.200524 190 7642ft 202kts
21-Aug-17 18:02 35.892643 -115.213717 190 9660ft 205kts
21-Aug-17 18:03 35.836216 -115.226944 190 11422ft 210kts
21-Aug-17 18:04 35.778354 -115.240138 190 12976ft 214kts
21-Aug-17 18:05 35.719413 -115.253860 190 14362ft 218kts
21-Aug-17 18:06 35.659384 -115.268142 190 15640ft 222kts
21-Aug-17 18:07 35.594942 -115.283631 190 16043ft 256kts
21-Aug-17 18:08 35.523952 -115.274367 168 16524ft 257kts
21-Aug-17 18:09 35.454688 -115.262632 197 17297ft 252kts
21-Aug-17 18:10 35.387561 -115.253652 166 18130ft 245kts
21-Aug-17 18:11 35.321716 -115.234850 165 18921ft 242kts
21-Aug-17 18:12 35.256762 -115.215599 165 19664ft 241kts
21-Aug-17 18:13 35.190759 -115.195959 165 19962ft 254kts
21-Aug-17 18:14 35.126143 -115.207617 243 19973ft 271kts
21-Aug-17 18:15 35.102526 -115.296238 251 19977ft 278kts
21-Aug-17 18:16 35.079365 -115.386761 251 19976ft 281kts
21-Aug-17 18:17 35.055798 -115.478796 251 19974ft 286kts
21-Aug-17 18:18 35.032059 -115.571252 251 19999ft 286kts
21-Aug-17 18:19 35.008263 -115.663733 250 20040ft 286kts
21-Aug-17 18:20 34.984322 -115.756284 249 20051ft 287kts
21-Aug-17 18:21 34.960240 -115.849072 249 20049ft 287kts
21-Aug-17 18:22 34.936130 -115.941683 249 20049ft 286kts
21-Aug-17 18:23 34.912037 -116.033833 248 20050ft 285kts
21-Aug-17 18:24 34.888127 -116.125008 248 20056ft 284kts
21-Aug-17 18:25 34.863902 -116.216894 248 20042ft 284kts
21-Aug-17 18:26 34.839727 -116.308340 248 20010ft 285kts
21-Aug-17 18:27 34.815361 -116.400267 248 19979ft 285kts
21-Aug-17 18:28 34.781957 -116.484364 221 19980ft 274kts
21-Aug-17 18:29 34.728258 -116.550314 222 19974ft 275kts
21-Aug-17 18:30 34.674513 -116.616406 222 19976ft 275kts
21-Aug-17 18:31 34.621221 -116.681799 221 19972ft 275kts
21-Aug-17 18:32 34.567327 -116.747823 221 19973ft 275kts
21-Aug-17 18:33 34.513608 -116.813480 221 19972ft 274kts
21-Aug-17 18:34 34.459906 -116.878995 221 19972ft 274kts
21-Aug-17 18:35 34.406069 -116.944566 221 19983ft 274kts
21-Aug-17 18:36 34.353745 -117.008153 221 19996ft 275kts
21-Aug-17 18:37 34.300608 -117.072614 221 18605ft 271kts
21-Aug-17 18:38 34.248045 -117.136219 221 16327ft 267kts
21-Aug-17 18:39 34.196427 -117.198578 222 14192ft 261kts
21-Aug-17 18:40 34.145522 -117.259942 222 13014ft 267kts
21-Aug-17 18:41 34.091815 -117.324650 222 13001ft 281kts
21-Aug-17 18:42 34.036217 -117.391508 222 12986ft 281kts
21-Aug-17 18:43 33.980971 -117.457762 222 11996ft 278kts
21-Aug-17 18:44 33.927537 -117.522500 231 10544ft 270kts
21-Aug-17 18:45 33.921851 -117.610502 268 8989ft 265kts
21-Aug-17 18:46 33.923324 -117.697148 268 7415ft 255kts
21-Aug-17 18:47 33.924167 -117.781102 268 5911ft 247kts
21-Aug-17 18:48 33.925373 -117.860005 269 5968ft 243kts
21-Aug-17 18:49 33.926393 -117.945184 268 6006ft 261kts
21-Aug-17 18:50 33.925896 -118.030955 268 4581ft 255kts
21-Aug-17 18:51 33.927058 -118.111015 271 3570ft 216kts
21-Aug-17 18:52 33.928385 -118.179011 269 2838ft 195kts
21-Aug-17 18:53 33.926981 -118.238798 267 2091ft 166kts
21-Aug-17 18:54 33.924951 -118.284759 266 1259ft 119kts
21-Aug-17 18:55 33.923446 -118.322056 267 276ft 108kts
21-Aug-17 18:56 33.922366 -118.337272 77 62ft 8kts
21-Aug-17 18:57 33.922430 -118.330030 143 58ft 15kts
21-Aug-17 18:58 33.922255 -118.329757 82 58ft 0kts

Navigation Log

Ident Type
Flight plan parsing failed, navigation log unavailable